Big Bear Station Historical Data
Daily Summary for March 3, 2019 Units:  English    Metric   Both
Next Day »
Daily Weekly Monthly Yearly Custom
  High: Low: Average:
Temperature: 44.1 °F 29.8 °F 35.3 °F
Dew Point: 37.2 °F 28.3 °F 32.7 °F
Humidity: 98% 71% 90%
Wind Speed: 8.9mph 0.0mph 2mph
Wind Gust: -999.0mph - -
Wind- - SW
Pressure: 23.48 in 23.42 in -
Precipitation: 0.00 in    
Historical Graphs
 
 
Tabular Data for March 3, 2019
Time Temperature Dew Point Pressure Wind Wind Speed Wind Gust Humidity Rainfall Rate (Hourly)
00:09 36.0 °F 35.2 °F 23.46 in WSW 3.7 mph -999.0 mph 97% 0.00 in
00:24 35.6 °F 34.6 °F 23.46 in NNW 4.7 mph -999.0 mph 96% 0.00 in
00:39 35.8 °F 34.2 °F 23.46 in NE 6.8 mph -999.0 mph 94% 0.00 in
00:55 35.6 °F 34.3 °F 23.46 in WNW 3.7 mph -999.0 mph 95% 0.00 in
01:10 35.4 °F 34.4 °F 23.47 in Calm   -999.0 mph 96% 0.00 in
01:25 35.2 °F 34.2 °F 23.46 in SW 1.7 mph -999.0 mph 96% 0.00 in
01:40 35.1 °F 34.3 °F 23.46 in Calm   -999.0 mph 97% 0.00 in
01:55 34.7 °F 33.7 °F 23.45 in Calm   -999.0 mph 96% 0.00 in
02:11 34.7 °F 33.7 °F 23.46 in Calm   -999.0 mph 96% 0.00 in
02:26 34.5 °F 33.5 °F 23.46 in NW 3.2 mph -999.0 mph 96% 0.00 in
02:41 34.3 °F 33.3 °F 23.45 in North 3.7 mph -999.0 mph 96% 0.00 in
02:56 34.2 °F 32.7 °F 23.46 in SW 2.2 mph -999.0 mph 94% 0.00 in
03:11 33.8 °F 32.5 °F 23.45 in Calm   -999.0 mph 95% 0.00 in
03:27 33.6 °F 32.3 °F 23.45 in NW 1.1 mph -999.0 mph 95% 0.00 in
03:42 33.4 °F 32.1 °F 23.45 in Calm   -999.0 mph 95% 0.00 in
03:57 33.1 °F 32.1 °F 23.45 in Calm   -999.0 mph 96% 0.00 in
04:12 32.9 °F 31.9 °F 23.45 in Calm   -999.0 mph 96% 0.00 in
04:27 32.7 °F 31.9 °F 23.45 in Calm   -999.0 mph 97% 0.00 in
04:43 32.7 °F 31.9 °F 23.45 in South 2.2 mph -999.0 mph 97% 0.00 in
04:58 32.5 °F 31.7 °F 23.45 in Calm   -999.0 mph 97% 0.00 in
05:13 32.2 °F 31.4 °F 23.45 in Calm   -999.0 mph 97% 0.00 in
05:28 32.2 °F 31.7 °F 23.45 in Calm   -999.0 mph 98% 0.00 in
05:44 31.6 °F 31.1 °F 23.45 in Calm   -999.0 mph 98% 0.00 in
05:59 31.5 °F 31.0 °F 23.45 in Calm   -999.0 mph 98% 0.00 in
06:14 31.6 °F 31.1 °F 23.45 in Calm   -999.0 mph 98% 0.00 in
06:29 31.3 °F 30.8 °F 23.45 in Calm   -999.0 mph 98% 0.00 in
06:44 31.5 °F 30.7 °F 23.45 in Calm   -999.0 mph 97% 0.00 in
07:00 31.8 °F 30.8 °F 23.45 in Calm   -999.0 mph 96% 0.00 in
07:15 32.2 °F 30.9 °F 23.45 in Calm   -999.0 mph 95% 0.00 in
07:30 32.0 °F 30.7 °F 23.46 in Calm   -999.0 mph 95% 0.00 in
07:45 33.4 °F 31.9 °F 23.46 in Calm   -999.0 mph 94% 0.00 in
08:00 33.6 °F 31.3 °F 23.47 in Calm   -999.0 mph 91% 0.00 in
08:16 34.2 °F 31.8 °F 23.47 in West 2.7 mph -999.0 mph 91% 0.00 in
08:31 34.9 °F 32.0 °F 23.47 in NW 3.2 mph -999.0 mph 89% 0.00 in
08:47 35.6 °F 32.1 °F 23.47 in NW 5.8 mph -999.0 mph 87% 0.00 in
09:02 36.3 °F 32.5 °F 23.47 in WNW 7.3 mph -999.0 mph 86% 0.00 in
09:17 37.0 °F 32.9 °F 23.48 in NNW 2.7 mph -999.0 mph 85% 0.00 in
09:33 37.8 °F 33.4 °F 23.48 in Calm   -999.0 mph 84% 0.00 in
09:48 38.8 °F 34.1 °F 23.48 in West 3.2 mph -999.0 mph 83% 0.00 in
10:03 41.2 °F 34.5 °F 23.48 in Calm   -999.0 mph 77% 0.00 in
10:18 42.3 °F 33.6 °F 23.47 in NW 3.2 mph -999.0 mph 71% 0.00 in
10:33 43.0 °F 34.6 °F 23.47 in NW 3.2 mph -999.0 mph 72% 0.00 in
10:54 44.1 °F 35.3 °F 23.47 in West 3.7 mph -999.0 mph 71% 0.00 in
11:09 43.9 °F 36.8 °F 23.47 in WNW 5.8 mph -999.0 mph 76% 0.00 in
12:27 43.3 °F 37.2 °F 23.46 in NNE 2.2 mph -999.0 mph 79% 0.00 in
12:42 43.9 °F 37.2 °F 23.45 in WNW 6.3 mph -999.0 mph 77% 0.00 in
12:57 42.8 °F 36.7 °F 23.45 in NW 5.3 mph -999.0 mph 79% 0.00 in
13:13 41.9 °F 37.1 °F 23.45 in Calm   -999.0 mph 83% 0.00 in
13:28 42.4 °F 37.0 °F 23.43 in West 3.7 mph -999.0 mph 81% 0.00 in
13:43 41.4 °F 36.6 °F 23.43 in NNE 1.7 mph -999.0 mph 83% 0.00 in
13:58 41.0 °F 36.2 °F 23.43 in NNW 4.7 mph -999.0 mph 83% 0.00 in
14:14 41.0 °F 35.9 °F 23.43 in ESE 3.2 mph -999.0 mph 82% 0.00 in
14:29 41.0 °F 35.9 °F 23.45 in SSE 2.7 mph -999.0 mph 82% 0.00 in
14:45 39.9 °F 35.5 °F 23.45 in Calm   -999.0 mph 84% 0.00 in
15:00 40.5 °F 35.4 °F 23.45 in Calm   -999.0 mph 82% 0.00 in
15:15 41.0 °F 35.9 °F 23.44 in Calm   -999.0 mph 82% 0.00 in
15:30 41.4 °F 36.0 °F 23.44 in Calm   -999.0 mph 81% 0.00 in
15:46 39.7 °F 34.7 °F 23.44 in NNE 6.8 mph -999.0 mph 82% 0.00 in
16:01 39.4 °F 35.0 °F 23.44 in SSW 1.7 mph -999.0 mph 84% 0.00 in
16:16 38.3 °F 33.9 °F 23.43 in South 2.2 mph -999.0 mph 84% 0.00 in
16:31 38.8 °F 34.4 °F 23.42 in Calm   -999.0 mph 84% 0.00 in
16:46 37.6 °F 33.5 °F 23.42 in WNW 1.7 mph -999.0 mph 85% 0.00 in
17:02 36.5 °F 33.3 °F 23.42 in NW 3.2 mph -999.0 mph 88% 0.00 in
17:17 35.8 °F 32.9 °F 23.43 in Calm   -999.0 mph 89% 0.00 in
17:32 35.2 °F 32.3 °F 23.43 in South 2.7 mph -999.0 mph 89% 0.00 in
17:47 34.7 °F 32.1 °F 23.42 in NNW 8.9 mph -999.0 mph 90% 0.00 in
18:02 34.2 °F 31.8 °F 23.43 in NE 1.7 mph -999.0 mph 91% 0.00 in
18:18 34.0 °F 31.9 °F 23.43 in NNW 3.2 mph -999.0 mph 92% 0.00 in
18:33 33.6 °F 31.5 °F 23.43 in Calm   -999.0 mph 92% 0.00 in
18:48 33.1 °F 31.3 °F 23.43 in SSE 2.2 mph -999.0 mph 93% 0.00 in
19:03 32.9 °F 31.4 °F 23.42 in SSE 1.1 mph -999.0 mph 94% 0.00 in
19:19 32.5 °F 31.0 °F 23.43 in Calm   -999.0 mph 94% 0.00 in
19:34 32.2 °F 30.7 °F 23.43 in WNW 2.7 mph -999.0 mph 94% 0.00 in
19:49 32.2 °F 30.9 °F 23.43 in North 3.7 mph -999.0 mph 95% 0.00 in
20:05 32.0 °F 30.5 °F 23.44 in SW 2.7 mph -999.0 mph 94% 0.00 in
20:20 31.6 °F 29.8 °F 23.43 in West 1.1 mph -999.0 mph 93% 0.00 in
20:35 32.0 °F 30.2 °F 23.43 in Calm   -999.0 mph 93% 0.00 in
20:50 31.8 °F 30.0 °F 23.43 in NNE 4.2 mph -999.0 mph 93% 0.00 in
21:06 31.8 °F 30.0 °F 23.43 in North 3.7 mph -999.0 mph 93% 0.00 in
21:21 31.5 °F 30.2 °F 23.43 in SE 3.7 mph -999.0 mph 95% 0.00 in
21:36 31.3 °F 30.0 °F 23.43 in WNW 2.7 mph -999.0 mph 95% 0.00 in
21:52 31.3 °F 30.0 °F 23.44 in West 2.2 mph -999.0 mph 95% 0.00 in
22:07 30.9 °F 29.6 °F 23.43 in NNE 2.2 mph -999.0 mph 95% 0.00 in
22:22 30.7 °F 29.4 °F 23.43 in West 2.2 mph -999.0 mph 95% 0.00 in
22:37 30.9 °F 29.1 °F 23.43 in NNE 3.2 mph -999.0 mph 93% 0.00 in
22:53 30.7 °F 28.9 °F 23.44 in South 3.2 mph -999.0 mph 93% 0.00 in
23:08 30.9 °F 29.1 °F 23.43 in South 1.7 mph -999.0 mph 93% 0.00 in
23:23 30.4 °F 28.9 °F 23.43 in Calm   -999.0 mph 94% 0.00 in
23:38 29.8 °F 28.3 °F 23.43 in Calm   -999.0 mph 94% 0.00 in
23:53 30.0 °F 28.7 °F 23.43 in WNW 2.7 mph -999.0 mph 95% 0.00 in
Big Bear CA Weather